Terminal Aerodrome Forecast
Issued by NWS

Home | Current Version | Previous Version | Text Only | Print | Product List | Glossary On
Versions: 1 2 3 4 5 6 7 8 9 10 11 12 13 14 15
000
FTUS41 KBTV 291737
TAFMSS
TAF
KMSS 291737Z 2918/3018 23006KT P6SM FEW045
     FM300300 17005KT P6SM SCT150
     FM301200 21013KT P6SM SCT100
     FM301500 21017G27KT P6SM SCT050 SCT100
     FM301700 22018G27KT P6SM -SHRA OVC050=

USA.gov is the U.S. government's official web portal to all federal, state and local government web resources and services.